Главная страница
METAR-TAF:

METAR-TAF

Аэропорты :

Франклин округ, Вермонт, США

широта: 44-56-25N, долгота: 073-05-51W, высота над уровнем моря: 69 м

Текущие метеонаблюдения

Эта сводка был подготовлена 14 минут назад, в 18:35 UTC
Ветер 8 Узел от южный с порывами до 17 Узел, изменяющийся между юго-юго-восточный и южный-юго-западный
Температура 11°C
Влажность 94%
Давление 1007 hPa
Видимость: 16.1 км
Рассеянная облачность на высоте 1100 фута
Сплошная облачность на высоте 3500 фута

METAR: KFSO 151835Z AUTO 19008G17KT 150V210 10SM BKN011 OVC035 11/10 A2975 RMK AO2 T01050097

Время: 14:49 (18:49 UTC)


TAF: отсутствует

Метеонаблюдения и прогнозы для более 4000 аэропортов (сводки METAR и TAF).

Имеющиеся станции представлены на карте желтыми и красными точками.

Чтобы увидеть название станции, наведите на нее мышь.

Затем щелкните, чтобы увидеть метеонаблюдения и метеопрогнозы.

Управление картой: чтобы увеличить масштаб, щелкните зеленые кнопки с черным крестиком; чтобы уменьшить масштаб, щелкните зеленую кнопку с тире; для просмотра соседних карт щелкайте зеленые стрелки.


METAR-TAF: